Saint-Jude, Canada
Current Conditions -  °F | °C
As of 5:00 PM on Sunday 25 Jan 2015 (Local Time) from CYHU Reporting Station
Clear Clear  
Wind Chill: -5°   Ceiling: Unl
Heat Index: 10°   Visibility: 9mi
Dew Point: -4°   Wind: 14mph
Humidity: 52%   Direction: 260°W
Pressure: 29.94"   Gusts: 20mph
Location:  45.77°N, 72.98°W
Report Text: CYHU 252200Z AUTO 26012G17KT 9SM CLR M12/M20 A2994 RMK SLP141
Loading
Personal Weather Stations






























Interactive Weather Map New forecast layout! Learn more

10-Day Weather Forecast

Advertisements
Track Severe Weather on mobile